createdAt,value
2019-05-01T00:02:03.264Z,9.22
2019-05-01T00:04:34.343Z,9.24
2019-05-01T00:07:05.355Z,9.23
2019-05-01T00:09:35.178Z,9.13
2019-05-01T00:12:04.518Z,9.14
2019-05-01T00:14:35.675Z,9.15
2019-05-01T00:17:05.081Z,9.15
2019-05-01T00:19:34.478Z,9.13
2019-05-01T00:22:03.817Z,9.12
2019-05-01T00:24:33.442Z,9.10
2019-05-01T00:27:02.876Z,9.07
2019-05-01T00:29:32.308Z,9.05
2019-05-01T00:32:01.641Z,9.01
2019-05-01T00:34:30.969Z,8.94
2019-05-01T00:37:00.300Z,8.82
2019-05-01T00:39:29.677Z,8.79
2019-05-01T00:41:59.000Z,8.76
2019-05-01T00:44:28.359Z,8.76
2019-05-01T00:46:58.075Z,8.74
2019-05-01T00:49:27.403Z,8.75
2019-05-01T00:51:56.737Z,8.76
2019-05-01T00:54:26.617Z,8.72
2019-05-01T00:57:00.224Z,8.68
2019-05-01T00:59:31.257Z,8.62
2019-05-01T01:02:02.541Z,8.56
2019-05-01T01:04:32.195Z,8.57
2019-05-01T01:07:01.537Z,8.57
2019-05-01T01:09:31.185Z,8.54
2019-05-01T01:12:00.546Z,8.49
2019-05-01T01:14:30.201Z,8.49
2019-05-01T01:16:59.530Z,8.44
2019-05-01T01:19:28.867Z,8.42
2019-05-01T01:21:58.197Z,8.38
2019-05-01T01:24:28.565Z,8.33
2019-05-01T01:26:58.348Z,8.29
2019-05-01T01:29:27.679Z,8.22
2019-05-01T01:31:57.055Z,8.24
2019-05-01T01:34:26.455Z,8.31
2019-05-01T01:36:55.776Z,8.39
2019-05-01T01:39:25.107Z,8.42
2019-05-01T01:41:55.178Z,8.43
2019-05-01T01:44:26.289Z,8.41
2019-05-01T01:46:59.836Z,8.36
2019-05-01T01:49:29.407Z,8.35
2019-05-01T01:51:58.906Z,8.33
2019-05-01T01:54:28.778Z,8.27
2019-05-01T01:56:58.380Z,8.24
2019-05-01T01:59:27.986Z,8.23
2019-05-01T02:02:07.774Z,8.23
2019-05-01T02:04:41.453Z,8.23
2019-05-01T02:07:10.031Z,8.23
2019-05-01T02:09:39.309Z,8.21
2019-05-01T02:12:08.782Z,8.18
2019-05-01T02:14:38.123Z,8.17
2019-05-01T02:17:07.519Z,8.16
2019-05-01T02:19:36.852Z,8.15
2019-05-01T02:22:06.531Z,8.11
2019-05-01T02:24:35.871Z,8.08
2019-05-01T02:27:10.045Z,8.05
2019-05-01T02:29:43.430Z,8.02
2019-05-01T02:32:13.630Z,7.97
2019-05-01T02:34:44.010Z,7.92
2019-05-01T02:37:15.585Z,7.91
2019-05-01T02:39:46.914Z,7.93
2019-05-01T02:42:18.320Z,7.91
2019-05-01T02:44:52.632Z,7.85
2019-05-01T02:47:25.019Z,7.81
2019-05-01T02:50:02.913Z,7.80
2019-05-01T02:52:35.292Z,7.76
2019-05-01T02:55:07.502Z,7.70
2019-05-01T02:57:39.213Z,7.68
2019-05-01T03:00:08.887Z,7.64
2019-05-01T03:02:39.425Z,7.59
2019-05-01T03:05:09.202Z,7.54
2019-05-01T03:07:39.397Z,7.55
2019-05-01T03:10:10.049Z,7.62
2019-05-01T03:12:42.517Z,7.70
2019-05-01T03:15:13.570Z,7.77
2019-05-01T03:17:55.200Z,7.80
2019-05-01T03:20:32.341Z,7.81
2019-05-01T03:23:13.340Z,7.83
2019-05-01T03:25:43.392Z,7.84
2019-05-01T03:28:13.367Z,7.84
2019-05-01T03:30:42.848Z,7.87
2019-05-01T03:33:12.551Z,7.85
2019-05-01T03:35:41.966Z,7.85
2019-05-01T03:38:11.762Z,7.86
2019-05-01T03:40:42.320Z,7.91
2019-05-01T03:43:12.858Z,7.90
2019-05-01T03:45:43.157Z,7.93
2019-05-01T03:48:12.947Z,7.97
2019-05-01T03:50:46.223Z,7.97
2019-05-01T03:53:13.730Z,7.98
2019-05-01T03:55:43.071Z,7.97
2019-05-01T03:58:12.406Z,7.99
2019-05-01T04:00:46.339Z,8.01
2019-05-01T04:03:32.676Z,8.01
2019-05-01T04:06:02.500Z,7.98
2019-05-01T04:08:32.764Z,8.01
2019-05-01T04:11:03.907Z,8.03
2019-05-01T04:13:34.064Z,8.04
2019-05-01T04:16:04.437Z,8.01
2019-05-01T04:18:34.538Z,8.00
2019-05-01T04:21:04.107Z,7.99
2019-05-01T04:23:33.501Z,7.99
2019-05-01T04:26:02.902Z,8.02
2019-05-01T04:28:36.602Z,8.04
2019-05-01T04:31:23.282Z,8.00
2019-05-01T04:33:57.421Z,7.98
2019-05-01T04:36:40.367Z,7.98
2019-05-01T04:39:09.677Z,7.98
2019-05-01T04:41:39.014Z,7.97
2019-05-01T04:44:08.829Z,7.95
2019-05-01T04:46:38.485Z,7.96
2019-05-01T04:49:08.214Z,7.93
2019-05-01T04:51:37.781Z,7.93
2019-05-01T04:54:08.248Z,7.93
2019-05-01T04:56:37.585Z,7.96
2019-05-01T04:59:07.482Z,7.96
2019-05-01T05:01:56.786Z,7.98
2019-05-01T05:04:26.725Z,7.93
2019-05-01T05:06:56.422Z,7.96
2019-05-01T05:09:40.000Z,7.97
2019-05-01T05:12:11.107Z,7.91
2019-05-01T05:14:51.287Z,7.92
2019-05-01T05:17:24.067Z,7.92
2019-05-01T05:19:53.660Z,7.96
2019-05-01T05:22:24.299Z,7.96
2019-05-01T05:24:54.467Z,7.93
2019-05-01T05:27:25.073Z,7.89
2019-05-01T05:29:57.545Z,7.89
2019-05-01T05:32:28.883Z,7.94
2019-05-01T05:35:00.427Z,7.96
2019-05-01T05:37:36.331Z,7.95
2019-05-01T05:40:06.750Z,7.91
2019-05-01T05:42:36.967Z,7.95
2019-05-01T05:45:09.583Z,8.01
2019-05-01T05:47:38.996Z,8.03
2019-05-01T05:50:09.974Z,8.04
2019-05-01T05:52:42.109Z,8.04
2019-05-01T05:55:17.091Z,8.06
2019-05-01T05:57:59.194Z,8.09
2019-05-01T06:00:44.229Z,8.09
2019-05-01T06:03:35.175Z,8.07
2019-05-01T06:06:08.187Z,8.03
2019-05-01T06:08:40.578Z,8.07
2019-05-01T06:11:17.314Z,8.09
2019-05-01T06:14:05.174Z,8.11
2019-05-01T06:16:53.960Z,8.13
2019-05-01T06:19:27.459Z,8.18
2019-05-01T06:22:05.084Z,8.17
2019-05-01T06:24:35.728Z,8.19
2019-05-01T06:27:08.815Z,8.15
2019-05-01T06:29:37.561Z,8.18
2019-05-01T06:32:06.885Z,8.19
2019-05-01T06:34:36.293Z,8.15
2019-05-01T06:37:05.689Z,8.20
2019-05-01T06:39:35.370Z,8.23
2019-05-01T06:42:09.871Z,8.27
2019-05-01T06:44:44.341Z,8.34
2019-05-01T06:47:24.828Z,8.37
2019-05-01T06:50:12.011Z,8.41
2019-05-01T06:52:41.686Z,8.43
2019-05-01T06:55:12.433Z,8.47
2019-05-01T06:57:43.686Z,8.47
2019-05-01T07:00:15.643Z,8.41
2019-05-01T07:02:47.479Z,8.49
2019-05-01T07:05:17.255Z,8.58
2019-05-01T07:07:48.278Z,8.65
2019-05-01T07:10:29.768Z,8.65
2019-05-01T07:12:49.411Z,8.73
2019-05-01T07:15:21.881Z,8.76
2019-05-01T07:17:50.093Z,8.83
2019-05-01T07:20:25.590Z,8.86
2019-05-01T07:22:55.621Z,8.79
2019-05-01T07:25:25.016Z,8.80
2019-05-01T07:27:58.479Z,8.84
2019-05-01T07:30:27.406Z,8.79
2019-05-01T07:32:57.601Z,8.84
2019-05-01T07:35:27.255Z,8.88
2019-05-01T07:37:57.641Z,8.89
2019-05-01T07:40:30.032Z,8.91
2019-05-01T07:42:59.871Z,8.95
2019-05-01T07:45:33.686Z,8.97
2019-05-01T07:48:05.616Z,9.02
2019-05-01T07:50:34.926Z,9.06
2019-05-01T07:53:04.420Z,9.10
2019-05-01T07:55:36.733Z,9.14
2019-05-01T07:58:15.903Z,9.17
2019-05-01T08:00:55.117Z,9.15
2019-05-01T08:03:24.438Z,9.21
2019-05-01T08:05:54.003Z,9.27
2019-05-01T08:08:23.563Z,9.33
2019-05-01T08:10:52.960Z,9.32
2019-05-01T08:13:22.288Z,9.39
2019-05-01T08:15:51.623Z,9.42
2019-05-01T08:18:29.309Z,9.45
2019-05-01T08:21:12.087Z,9.45
2019-05-01T08:23:42.635Z,9.47
2019-05-01T08:26:12.480Z,9.47
2019-05-01T08:28:55.441Z,9.46
2019-05-01T08:31:42.657Z,9.48
2019-05-01T08:34:26.608Z,9.53
2019-05-01T08:36:55.318Z,9.59
2019-05-01T08:39:24.764Z,9.65
2019-05-01T08:41:54.089Z,9.68
2019-05-01T08:44:29.571Z,9.69
2019-05-01T08:47:09.859Z,9.73
2019-05-01T08:49:56.793Z,9.74
2019-05-01T08:52:26.198Z,9.76
2019-05-01T08:54:55.523Z,9.83
2019-05-01T08:57:29.039Z,9.89
2019-05-01T09:00:00.342Z,9.92
2019-05-01T09:02:26.960Z,9.91
2019-05-01T09:05:02.621Z,9.97
2019-05-01T09:07:27.608Z,10.03
2019-05-01T09:09:56.904Z,10.06
2019-05-01T09:12:26.234Z,10.06
2019-05-01T09:14:55.567Z,10.14
2019-05-01T09:17:24.896Z,10.18
2019-05-01T09:19:54.237Z,10.18
2019-05-01T09:22:23.565Z,10.25
2019-05-01T09:24:52.964Z,10.34
2019-05-01T09:27:31.125Z,10.45
2019-05-01T09:30:07.877Z,10.55
2019-05-01T09:32:37.210Z,10.64
2019-05-01T09:35:15.463Z,10.69
2019-05-01T09:37:38.173Z,10.74
2019-05-01T09:40:09.517Z,10.81
2019-05-01T09:42:40.063Z,10.82
2019-05-01T09:45:09.642Z,10.89
2019-05-01T09:47:38.970Z,10.86
2019-05-01T09:50:08.551Z,10.86
2019-05-01T09:52:59.708Z,10.91
2019-05-01T09:55:49.100Z,11.00
2019-05-01T09:58:19.412Z,11.10
2019-05-01T10:00:52.722Z,11.16
2019-05-01T10:03:20.482Z,11.22
2019-05-01T10:05:49.820Z,11.26
2019-05-01T10:08:19.474Z,11.28
2019-05-01T10:10:48.810Z,11.36
2019-05-01T10:13:22.556Z,11.38
2019-05-01T10:15:49.205Z,11.48
2019-05-01T10:18:19.582Z,11.42
2019-05-01T10:20:48.924Z,11.46
2019-05-01T10:23:18.250Z,11.49
2019-05-01T10:25:54.930Z,11.62
2019-05-01T10:28:34.800Z,11.67
2019-05-01T10:31:07.021Z,11.69
2019-05-01T10:33:41.132Z,11.73
2019-05-01T10:36:18.800Z,11.74
2019-05-01T10:38:46.750Z,11.76
2019-05-01T10:41:15.797Z,11.81
2019-05-01T10:43:45.127Z,11.81
2019-05-01T10:46:14.457Z,11.84
2019-05-01T10:48:43.793Z,11.92
2019-05-01T10:51:14.114Z,11.99
2019-05-01T10:53:43.443Z,12.00
2019-05-01T10:56:12.815Z,12.01
2019-05-01T10:58:42.147Z,12.12
2019-05-01T11:01:19.105Z,12.23
2019-05-01T11:03:48.682Z,12.26
2019-05-01T11:06:18.012Z,12.16
2019-05-01T11:08:47.347Z,11.94
2019-05-01T11:11:16.919Z,11.79
2019-05-01T11:13:46.252Z,11.97
2019-05-01T11:16:15.656Z,12.10
2019-05-01T11:18:44.994Z,12.06
2019-05-01T11:21:14.562Z,12.07
2019-05-01T11:23:43.896Z,12.12
2019-05-01T11:26:13.456Z,12.09
2019-05-01T11:28:42.790Z,12.09
2019-05-01T11:31:13.999Z,12.15
2019-05-01T11:33:44.971Z,12.23
2019-05-01T11:36:22.809Z,12.32
2019-05-01T11:39:03.136Z,12.32
2019-05-01T11:41:51.228Z,12.39
2019-05-01T11:44:20.568Z,12.45
2019-05-01T11:46:50.210Z,12.42
2019-05-01T11:49:19.544Z,12.46
2019-05-01T11:51:48.888Z,12.41
2019-05-01T11:54:18.207Z,12.47
2019-05-01T11:56:47.548Z,12.41
2019-05-01T11:59:16.877Z,12.53
2019-05-01T12:01:46.220Z,12.59
2019-05-01T12:04:15.548Z,12.68
2019-05-01T12:06:44.892Z,12.79
2019-05-01T12:09:14.229Z,12.86
2019-05-01T12:11:46.374Z,12.86
2019-05-01T12:14:15.707Z,12.88
2019-05-01T12:16:52.101Z,12.76
2019-05-01T12:19:23.433Z,12.85
2019-05-01T12:21:53.114Z,12.92
2019-05-01T12:24:23.534Z,12.98
2019-05-01T12:26:52.874Z,12.96
2019-05-01T12:29:22.209Z,13.01
2019-05-01T12:31:51.563Z,12.98
2019-05-01T12:34:20.915Z,12.98
2019-05-01T12:36:51.887Z,13.07
2019-05-01T12:39:21.241Z,13.11
2019-05-01T12:41:54.935Z,13.27
2019-05-01T12:44:23.541Z,13.34
2019-05-01T12:47:09.115Z,13.34
2019-05-01T12:49:39.415Z,13.41
2019-05-01T12:52:15.851Z,13.45
2019-05-01T12:54:47.044Z,13.46
2019-05-01T12:57:18.258Z,13.20
2019-05-01T12:59:47.594Z,13.16
2019-05-01T13:02:18.132Z,13.26
2019-05-01T13:04:47.467Z,13.31
2019-05-01T13:07:17.391Z,13.43
2019-05-01T13:09:46.954Z,13.60
2019-05-01T13:12:16.292Z,13.91
2019-05-01T13:14:45.831Z,14.18
2019-05-01T13:17:15.413Z,14.34
2019-05-01T13:19:44.983Z,14.63
2019-05-01T13:22:14.555Z,14.98
2019-05-01T13:24:50.061Z,15.25
2019-05-01T13:27:27.277Z,15.43
2019-05-01T13:29:58.246Z,15.37
2019-05-01T13:32:45.457Z,15.63
2019-05-01T13:35:15.529Z,16.15
2019-05-01T13:37:44.877Z,16.59
2019-05-01T13:40:15.219Z,16.74
2019-05-01T13:42:45.766Z,16.92
2019-05-01T13:45:15.670Z,17.12
2019-05-01T13:47:45.028Z,17.09
2019-05-01T13:50:14.598Z,17.16
2019-05-01T13:52:43.933Z,17.52
2019-05-01T13:55:13.509Z,17.93
2019-05-01T13:57:43.074Z,18.35
2019-05-01T14:00:12.943Z,18.81
2019-05-01T14:02:43.892Z,18.86
2019-05-01T14:05:13.683Z,19.37
2019-05-01T14:07:43.015Z,19.58
2019-05-01T14:10:13.926Z,19.84
2019-05-01T14:12:43.261Z,19.84
2019-05-01T14:15:13.172Z,19.92
2019-05-01T14:17:42.505Z,20.24
2019-05-01T14:20:20.397Z,20.43
2019-05-01T14:22:51.371Z,20.59
2019-05-01T14:25:20.715Z,20.53
2019-05-01T14:27:50.045Z,20.50
2019-05-01T14:30:19.453Z,20.22
2019-05-01T14:32:51.525Z,19.77
2019-05-01T14:35:20.174Z,19.27
2019-05-01T14:37:49.510Z,19.40
2019-05-01T14:40:19.117Z,19.44
2019-05-01T14:42:48.457Z,19.11
2019-05-01T14:45:18.152Z,19.10
2019-05-01T14:47:47.489Z,19.09
2019-05-01T14:50:16.971Z,19.10
2019-05-01T14:52:46.312Z,19.19
2019-05-01T14:55:15.740Z,19.33
2019-05-01T14:57:45.079Z,19.39
2019-05-01T15:00:15.635Z,18.65
2019-05-01T15:02:44.972Z,18.91
2019-05-01T15:05:14.374Z,18.72
2019-05-01T15:07:44.299Z,18.86
2019-05-01T15:10:13.877Z,18.94
2019-05-01T15:12:45.101Z,18.93
2019-05-01T15:15:32.294Z,18.91
2019-05-01T15:18:19.164Z,18.99
2019-05-01T15:20:48.506Z,19.01
2019-05-01T15:23:17.841Z,19.14
2019-05-01T15:25:47.199Z,19.21
2019-05-01T15:28:16.523Z,19.21
2019-05-01T15:30:45.870Z,19.21
2019-05-01T15:33:15.209Z,19.18
2019-05-01T15:35:44.550Z,19.11
2019-05-01T15:38:13.899Z,19.04
2019-05-01T15:40:50.652Z,19.05
2019-05-01T15:43:27.435Z,19.03
2019-05-01T15:45:56.765Z,19.00
2019-05-01T15:48:26.103Z,18.92
2019-05-01T15:50:55.436Z,18.79
2019-05-01T15:53:24.778Z,18.72
2019-05-01T15:55:54.160Z,18.70
2019-05-01T15:58:23.517Z,18.68
2019-05-01T16:00:52.943Z,18.48
2019-05-01T16:03:22.281Z,18.48
2019-05-01T16:05:51.855Z,18.46
2019-05-01T16:08:21.489Z,18.42
2019-05-01T16:10:55.394Z,18.34
2019-05-01T16:13:24.724Z,18.29
2019-05-01T16:15:54.065Z,18.25
2019-05-01T16:18:23.439Z,18.20
2019-05-01T16:20:52.770Z,18.07
2019-05-01T16:23:22.109Z,18.04
2019-05-01T16:25:51.672Z,17.99
2019-05-01T16:28:21.021Z,17.90
2019-05-01T16:30:50.351Z,17.82
2019-05-01T16:33:19.928Z,17.79
2019-05-01T16:35:49.258Z,17.76
2019-05-01T16:38:23.502Z,17.60
2019-05-01T16:40:59.836Z,17.47
2019-05-01T16:43:29.185Z,17.34
2019-05-01T16:45:59.700Z,17.18
2019-05-01T16:48:29.046Z,17.07
2019-05-01T16:50:58.386Z,16.98
2019-05-01T16:53:27.766Z,16.94
2019-05-01T16:55:57.167Z,16.88
2019-05-01T16:58:26.738Z,16.81
2019-05-01T17:00:59.821Z,16.71
2019-05-01T17:03:32.267Z,16.57
2019-05-01T17:06:09.858Z,16.45
2019-05-01T17:08:56.814Z,16.40
2019-05-01T17:11:30.911Z,16.35
2019-05-01T17:14:00.547Z,16.28
2019-05-01T17:16:30.184Z,16.20
2019-05-01T17:18:59.754Z,16.14
2019-05-01T17:21:29.315Z,16.11
2019-05-01T17:23:58.720Z,16.08
2019-05-01T17:26:28.289Z,15.99
2019-05-01T17:28:57.694Z,15.94
2019-05-01T17:31:28.422Z,15.85
2019-05-01T17:33:57.981Z,15.76
2019-05-01T17:36:27.325Z,15.65
2019-05-01T17:38:56.660Z,15.58
2019-05-01T17:41:27.253Z,15.47
2019-05-01T17:43:57.039Z,15.39
2019-05-01T17:46:26.621Z,15.28
2019-05-01T17:48:55.950Z,15.22
2019-05-01T17:51:25.293Z,15.15
2019-05-01T17:53:54.634Z,15.09
2019-05-01T17:56:28.422Z,14.99
2019-05-01T17:58:55.018Z,14.87
2019-05-01T18:01:42.008Z,14.73
2019-05-01T18:04:21.748Z,14.61
2019-05-01T18:06:51.969Z,14.47
2019-05-01T18:09:21.545Z,14.35
2019-05-01T18:11:52.308Z,14.23
2019-05-01T18:14:22.166Z,14.16
2019-05-01T18:16:51.728Z,14.08
2019-05-01T18:19:21.056Z,13.98
2019-05-01T18:21:53.560Z,13.90
2019-05-01T18:24:33.472Z,13.82
2019-05-01T18:27:07.098Z,13.74
2019-05-01T18:29:46.094Z,13.64
2019-05-01T18:32:17.078Z,13.56
2019-05-01T18:34:46.462Z,13.49
2019-05-01T18:37:17.435Z,13.42
2019-05-01T18:39:47.837Z,13.34
2019-05-01T18:42:17.543Z,13.24
2019-05-01T18:44:47.854Z,13.17
2019-05-01T18:47:18.401Z,13.08
2019-05-01T18:49:47.846Z,13.02
2019-05-01T18:52:18.333Z,12.92
2019-05-01T18:54:47.662Z,12.84
2019-05-01T18:57:17.070Z,12.74
2019-05-01T18:59:46.653Z,12.66
2019-05-01T19:02:20.624Z,12.57
2019-05-01T19:04:47.110Z,12.47
2019-05-01T19:07:16.701Z,12.39
2019-05-01T19:09:46.097Z,12.30
2019-05-01T19:12:15.864Z,12.22
2019-05-01T19:14:45.493Z,12.15
2019-05-01T19:17:15.010Z,12.06
2019-05-01T19:19:44.338Z,11.97
2019-05-01T19:22:13.921Z,11.89
2019-05-01T19:24:43.332Z,11.84
2019-05-01T19:27:14.219Z,11.76
2019-05-01T19:29:43.821Z,11.68
2019-05-01T19:32:13.161Z,11.64
2019-05-01T19:34:42.537Z,11.58
2019-05-01T19:37:16.030Z,11.53
2019-05-01T19:39:44.180Z,11.52
2019-05-01T19:42:14.409Z,11.49
2019-05-01T19:44:43.810Z,11.46
2019-05-01T19:47:14.134Z,11.54
2019-05-01T19:49:43.765Z,11.68
2019-05-01T19:52:13.468Z,11.80
2019-05-01T19:54:42.809Z,11.91
2019-05-01T19:57:12.154Z,11.98
2019-05-01T19:59:41.844Z,12.00
2019-05-01T20:02:12.613Z,12.02
2019-05-01T20:04:45.264Z,12.05
2019-05-01T20:07:15.821Z,12.04
2019-05-01T20:09:56.427Z,12.01
2019-05-01T20:12:16.799Z,11.98
2019-05-01T20:14:46.144Z,12.00
2019-05-01T20:17:18.670Z,12.00
2019-05-01T20:19:48.003Z,11.94
2019-05-01T20:22:17.562Z,11.88
2019-05-01T20:24:47.122Z,11.84
2019-05-01T20:27:16.689Z,11.80
2019-05-01T20:29:46.040Z,11.73
2019-05-01T20:32:15.607Z,11.72
2019-05-01T20:34:48.121Z,11.71
2019-05-01T20:37:15.973Z,11.70
2019-05-01T20:39:45.323Z,11.72
2019-05-01T20:42:15.728Z,11.73
2019-05-01T20:44:45.084Z,11.71
2019-05-01T20:47:14.480Z,11.67
2019-05-01T20:49:43.813Z,11.63
2019-05-01T20:52:14.119Z,11.60
2019-05-01T20:54:43.450Z,11.56
2019-05-01T20:57:20.885Z,11.52
2019-05-01T20:59:48.178Z,11.48
2019-05-01T21:02:16.998Z,11.44
2019-05-01T21:05:04.207Z,11.38
2019-05-01T21:07:35.854Z,11.35
2019-05-01T21:10:06.841Z,11.28
2019-05-01T21:12:36.173Z,11.21
2019-05-01T21:15:08.522Z,11.17
2019-05-01T21:17:38.067Z,11.09
2019-05-01T21:20:07.867Z,11.07
2019-05-01T21:22:37.446Z,11.03
2019-05-01T21:25:07.048Z,10.99
2019-05-01T21:27:36.771Z,10.96
2019-05-01T21:30:09.372Z,10.92
2019-05-01T21:32:38.708Z,10.83
2019-05-01T21:35:08.280Z,10.80
2019-05-01T21:37:38.589Z,10.76
2019-05-01T21:40:08.257Z,10.69
2019-05-01T21:42:37.901Z,10.56
2019-05-01T21:45:07.772Z,10.43
2019-05-01T21:47:37.422Z,10.30
2019-05-01T21:50:06.901Z,10.19
2019-05-01T21:52:36.533Z,10.07
2019-05-01T21:55:06.602Z,9.96
2019-05-01T21:57:40.103Z,9.85
2019-05-01T22:00:09.197Z,9.73
2019-05-01T22:02:41.680Z,9.66
2019-05-01T22:05:11.518Z,9.57
2019-05-01T22:07:40.853Z,9.47
2019-05-01T22:10:11.705Z,9.39
2019-05-01T22:12:43.850Z,9.31
2019-05-01T22:15:16.768Z,9.25
2019-05-01T22:18:03.061Z,9.19
2019-05-01T22:20:52.530Z,9.12
2019-05-01T22:23:29.913Z,9.07
2019-05-01T22:26:00.673Z,9.00
2019-05-01T22:28:37.584Z,8.98
2019-05-01T22:31:21.716Z,8.96
2019-05-01T22:33:50.445Z,8.97
2019-05-01T22:36:19.777Z,8.96
2019-05-01T22:38:49.188Z,8.94
2019-05-01T22:41:18.580Z,8.92
2019-05-01T22:43:47.997Z,8.89
2019-05-01T22:46:18.973Z,8.84
2019-05-01T22:48:48.309Z,8.76
2019-05-01T22:51:19.299Z,8.69
2019-05-01T22:53:50.276Z,8.61
2019-05-01T22:56:19.615Z,8.50
2019-05-01T22:58:48.953Z,8.47
2019-05-01T23:01:19.328Z,8.53
2019-05-01T23:03:56.057Z,8.61
2019-05-01T23:06:25.394Z,8.64
2019-05-01T23:08:54.741Z,8.72
2019-05-01T23:11:26.072Z,8.80
2019-05-01T23:13:55.484Z,8.82
2019-05-01T23:16:28.717Z,8.82
2019-05-01T23:18:57.844Z,8.82
2019-05-01T23:21:27.409Z,8.81
2019-05-01T23:24:01.771Z,8.80
2019-05-01T23:26:27.783Z,8.81
2019-05-01T23:28:57.153Z,8.81
2019-05-01T23:31:26.634Z,8.85
2019-05-01T23:33:55.968Z,8.84
2019-05-01T23:36:25.304Z,8.86
2019-05-01T23:38:54.633Z,8.89
2019-05-01T23:41:44.641Z,8.86
2019-05-01T23:43:58.340Z,8.83
2019-05-01T23:46:26.104Z,8.76
2019-05-01T23:48:55.437Z,8.66
2019-05-01T23:51:28.478Z,8.58
2019-05-01T23:53:55.980Z,8.49
2019-05-01T23:56:25.666Z,8.41
2019-05-01T23:58:55.273Z,8.32
